createdAt,value
2022-08-04T00:03:40.488Z,100932.69
2022-08-04T00:08:49.072Z,100932.86
2022-08-04T00:14:03.002Z,100935.90
2022-08-04T00:19:16.682Z,100935.80
2022-08-04T00:24:24.053Z,100938.59
2022-08-04T00:29:30.996Z,100933.54
2022-08-04T00:34:38.884Z,100933.43
2022-08-04T00:39:46.137Z,100933.91
2022-08-04T00:45:09.032Z,100937.30
2022-08-04T00:50:25.007Z,100940.36
2022-08-04T00:55:45.698Z,100947.64
2022-08-04T01:00:59.627Z,100948.89
2022-08-04T01:06:18.407Z,100945.48
2022-08-04T01:11:56.645Z,100947.50
2022-08-04T01:17:19.140Z,100951.49
2022-08-04T01:23:04.567Z,100950.75
2022-08-04T01:28:28.286Z,100951.85
2022-08-04T01:34:02.984Z,100953.84
2022-08-04T01:39:25.253Z,100954.72
2022-08-04T01:44:33.404Z,100956.63
2022-08-04T01:49:42.266Z,100953.45
2022-08-04T01:54:49.647Z,100956.98
2022-08-04T01:59:58.458Z,100962.30
2022-08-04T02:05:04.893Z,100961.55
2022-08-04T02:10:27.979Z,100959.50
2022-08-04T02:15:43.138Z,100950.98
2022-08-04T02:20:55.750Z,100947.58
2022-08-04T02:26:03.957Z,100945.14
2022-08-04T02:31:28.821Z,100943.86
2022-08-04T02:36:39.394Z,100940.78
2022-08-04T02:41:46.902Z,100935.89
2022-08-04T02:46:55.087Z,100931.58
2022-08-04T02:52:02.255Z,100932.98
2022-08-04T02:57:12.223Z,100932.57
2022-08-04T03:02:23.430Z,100931.52
2022-08-04T03:08:24.983Z,100931.77
2022-08-04T03:13:53.594Z,100935.16
2022-08-04T03:19:37.540Z,100942.86
2022-08-04T03:25:25.345Z,100945.16
2022-08-04T03:30:47.921Z,100948.60
2022-08-04T03:36:35.926Z,100951.30
2022-08-04T03:42:19.134Z,100957.58
2022-08-04T03:47:51.874Z,100962.41
2022-08-04T03:53:30.420Z,100962.92
2022-08-04T03:58:56.942Z,100964.22
2022-08-04T04:04:33.523Z,100962.48
2022-08-04T04:10:11.487Z,100962.95
2022-08-04T04:15:31.248Z,100965.38
2022-08-04T04:21:10.720Z,100971.96
2022-08-04T04:26:52.395Z,100977.44
2022-08-04T04:32:14.883Z,100973.64
2022-08-04T04:37:30.899Z,100969.03
2022-08-04T04:42:59.205Z,100976.05
2022-08-04T04:48:17.930Z,100979.14
2022-08-04T04:53:33.358Z,100981.94
2022-08-04T04:58:40.227Z,100980.25
2022-08-04T05:04:17.523Z,100986.32
2022-08-04T05:09:37.576Z,100991.23
2022-08-04T05:14:47.750Z,100990.63
2022-08-04T05:20:06.990Z,100994.48
2022-08-04T05:25:19.513Z,100996.31
2022-08-04T05:30:27.298Z,100996.46
2022-08-04T05:35:37.702Z,100997.20
2022-08-04T05:41:04.464Z,100998.74
2022-08-04T05:46:12.240Z,101001.89
2022-08-04T05:51:18.814Z,101005.40
2022-08-04T05:56:26.570Z,101008.03
2022-08-04T06:01:34.309Z,101013.03
2022-08-04T06:07:00.221Z,101015.52
2022-08-04T06:12:11.183Z,101019.67
2022-08-04T06:18:33.856Z,101022.55
2022-08-04T06:22:53.538Z,101021.64
2022-08-04T06:28:01.697Z,101020.60
2022-08-04T06:33:23.846Z,101022.27
2022-08-04T06:38:32.329Z,101019.77
2022-08-04T06:43:42.808Z,101028.94
2022-08-04T06:48:51.881Z,101026.38
2022-08-04T06:53:58.399Z,101028.51
2022-08-04T06:59:05.796Z,101026.13
2022-08-04T07:04:12.343Z,101020.58
2022-08-04T07:09:18.286Z,101019.04
2022-08-04T07:14:27.120Z,101018.84
2022-08-04T07:19:34.248Z,101015.98
2022-08-04T07:24:42.235Z,101017.53
2022-08-04T07:29:49.039Z,101021.20
2022-08-04T07:34:56.234Z,101017.20
2022-08-04T07:40:02.956Z,101021.62
2022-08-04T07:45:11.096Z,101029.83
2022-08-04T07:50:17.864Z,101025.16
2022-08-04T07:55:24.179Z,101021.92
2022-08-04T08:00:30.939Z,101016.90
2022-08-04T08:06:16.900Z,101018.92
2022-08-04T08:11:06.401Z,101013.70
2022-08-04T08:16:13.062Z,101015.13
2022-08-04T08:21:21.667Z,101012.47
2022-08-04T08:26:28.228Z,101010.48
2022-08-04T08:31:55.919Z,101014.73
2022-08-04T08:37:09.699Z,101020.53
2022-08-04T08:42:42.725Z,101024.48
2022-08-04T08:48:38.175Z,101019.36
2022-08-04T08:53:59.698Z,101019.48
2022-08-04T08:59:28.910Z,101025.08
2022-08-04T09:05:37.018Z,101020.83
2022-08-04T09:10:47.955Z,101016.61
2022-08-04T09:16:02.617Z,101010.68
2022-08-04T09:21:28.433Z,101007.70
2022-08-04T09:26:40.802Z,101006.70
2022-08-04T09:32:06.690Z,101001.58
2022-08-04T09:37:23.910Z,101000.27
2022-08-04T09:42:45.448Z,101001.73
2022-08-04T09:47:57.911Z,101002.06
2022-08-04T09:53:20.756Z,101002.13
2022-08-04T09:58:39.451Z,101001.63
2022-08-04T10:03:49.985Z,100997.17
2022-08-04T10:09:12.765Z,100998.44
2022-08-04T10:14:36.646Z,100999.98
2022-08-04T10:19:43.496Z,100997.00
2022-08-04T10:24:59.326Z,100988.29
2022-08-04T10:30:12.228Z,100989.73
2022-08-04T10:35:21.619Z,100988.83
2022-08-04T10:40:45.776Z,100983.98
2022-08-04T10:45:58.251Z,100977.29
2022-08-04T10:51:11.809Z,100969.30
2022-08-04T10:56:23.850Z,100967.44
2022-08-04T11:01:59.432Z,100962.41
2022-08-04T11:07:03.987Z,100956.96
2022-08-04T11:12:15.548Z,100954.25
2022-08-04T11:17:26.296Z,100954.63
2022-08-04T11:22:32.383Z,100950.91
2022-08-04T11:27:47.061Z,100948.15
2022-08-04T11:33:10.285Z,100939.56
2022-08-04T11:38:29.067Z,100937.70
2022-08-04T11:44:02.734Z,100937.69
2022-08-04T11:49:16.817Z,100940.39
2022-08-04T11:54:23.509Z,100931.48
2022-08-04T11:59:30.874Z,100930.93
2022-08-04T12:04:47.460Z,100930.11
2022-08-04T12:10:08.254Z,100928.27
2022-08-04T12:15:20.543Z,100918.98
2022-08-04T12:20:32.102Z,100917.27
2022-08-04T12:25:52.304Z,100916.55
2022-08-04T12:31:06.207Z,100909.49
2022-08-04T12:36:27.002Z,100910.07
2022-08-04T12:41:38.920Z,100909.84
2022-08-04T12:46:47.543Z,100902.58
2022-08-04T12:52:07.400Z,100893.14
2022-08-04T12:57:17.974Z,100896.20
2022-08-04T13:02:34.068Z,100890.16
2022-08-04T13:07:44.177Z,100886.48
2022-08-04T13:12:57.798Z,100886.34
2022-08-04T13:18:05.986Z,100881.01
2022-08-04T13:23:22.204Z,100878.17
2022-08-04T13:28:29.596Z,100869.63
2022-08-04T13:33:38.752Z,100866.33
2022-08-04T13:38:51.661Z,100865.97
2022-08-04T13:44:17.893Z,100863.50
2022-08-04T13:49:37.987Z,100854.35
2022-08-04T13:54:53.676Z,100848.27
2022-08-04T14:00:04.367Z,100846.05
2022-08-04T14:05:19.620Z,100845.09
2022-08-04T14:10:25.900Z,100843.20
2022-08-04T14:15:54.764Z,100840.55
2022-08-04T14:21:11.450Z,100838.71
2022-08-04T14:26:31.566Z,100834.27
2022-08-04T14:31:55.269Z,100828.63
2022-08-04T14:37:18.164Z,100825.70
2022-08-04T14:42:41.720Z,100821.33
2022-08-04T14:47:51.831Z,100820.02
2022-08-04T14:53:07.224Z,100814.61
2022-08-04T14:58:36.399Z,100817.20
2022-08-04T15:03:50.873Z,100810.48
2022-08-04T15:09:01.923Z,100813.29
2022-08-04T15:14:08.739Z,100812.09
2022-08-04T15:19:34.816Z,100810.80
2022-08-04T15:24:41.104Z,100809.01
2022-08-04T15:29:59.042Z,100806.14
2022-08-04T15:35:12.659Z,100801.73
2022-08-04T15:40:33.024Z,100803.23
2022-08-04T15:46:32.957Z,100800.88
2022-08-04T15:51:31.982Z,100797.46
2022-08-04T15:57:02.459Z,100802.02
2022-08-04T16:02:40.532Z,100802.48
2022-08-04T16:07:57.404Z,100801.58
2022-08-04T16:13:08.575Z,100799.94
2022-08-04T16:18:33.914Z,100801.11
2022-08-04T16:24:15.306Z,100798.50
2022-08-04T16:29:38.814Z,100798.16
2022-08-04T16:34:55.648Z,100791.25
2022-08-04T16:40:34.445Z,100792.27
2022-08-04T16:45:54.102Z,100790.45
2022-08-04T16:51:04.535Z,100784.29
2022-08-04T16:56:19.934Z,100783.98
2022-08-04T17:01:33.378Z,100789.05
2022-08-04T17:06:42.988Z,100789.07
2022-08-04T17:11:49.450Z,100791.98
2022-08-04T17:16:57.606Z,100792.96
2022-08-04T17:22:07.229Z,100789.06
2022-08-04T17:28:08.682Z,100790.09
2022-08-04T17:32:44.856Z,100791.86
2022-08-04T17:37:53.478Z,100795.60
2022-08-04T17:44:05.241Z,100797.60
2022-08-04T17:48:42.715Z,100790.89
2022-08-04T17:54:02.739Z,100798.94
2022-08-04T17:59:57.070Z,100796.51
2022-08-04T18:05:07.314Z,100800.95
2022-08-04T18:10:32.313Z,100798.69
2022-08-04T18:15:46.321Z,100805.73
2022-08-04T18:20:53.365Z,100811.75
2022-08-04T18:25:59.356Z,100811.27
2022-08-04T18:31:09.245Z,100815.45
2022-08-04T18:36:32.465Z,100818.64
2022-08-04T18:42:00.713Z,100820.85
2022-08-04T18:47:19.344Z,100820.46
2022-08-04T18:52:26.365Z,100817.60
2022-08-04T18:58:01.067Z,100820.39
2022-08-04T19:03:01.405Z,100820.59
2022-08-04T19:08:33.558Z,100825.40
2022-08-04T19:13:34.963Z,100825.19
2022-08-04T19:18:40.936Z,100826.92
2022-08-04T19:24:11.302Z,100829.01
2022-08-04T19:29:14.995Z,100829.39
2022-08-04T19:34:33.084Z,100828.73
2022-08-04T19:39:40.839Z,100831.83
2022-08-04T19:44:46.728Z,100836.42
2022-08-04T19:50:05.054Z,100836.95
2022-08-04T19:55:16.532Z,100831.89
2022-08-04T20:00:33.737Z,100839.02
2022-08-04T20:05:54.221Z,100834.34
2022-08-04T20:11:01.842Z,100836.23
2022-08-04T20:16:29.725Z,100839.77
2022-08-04T20:27:04.888Z,100848.66
2022-08-04T20:38:00.531Z,100853.64
2022-08-04T20:43:07.709Z,100857.45
2022-08-04T20:48:15.352Z,100857.19
2022-08-04T20:53:21.426Z,100856.73
2022-08-04T20:58:47.434Z,100859.94
2022-08-04T21:04:12.179Z,100858.37
2022-08-04T21:09:26.539Z,100854.30
2022-08-04T21:14:44.545Z,100857.89
2022-08-04T21:19:54.596Z,100851.48
2022-08-04T21:25:01.604Z,100854.83
2022-08-04T21:30:25.318Z,100853.16
2022-08-04T21:35:38.366Z,100847.60
2022-08-04T21:40:53.659Z,100857.51
2022-08-04T21:46:04.810Z,100861.62
2022-08-04T21:51:56.802Z,100860.08
2022-08-04T21:56:50.800Z,100863.13
2022-08-04T22:01:59.953Z,100860.10
2022-08-04T22:07:06.638Z,100858.52
2022-08-04T22:12:13.764Z,100857.83
2022-08-04T22:17:27.192Z,100853.45
2022-08-04T22:22:41.422Z,100859.60
2022-08-04T22:28:01.048Z,100857.44
2022-08-04T22:33:09.761Z,100852.77
2022-08-04T22:38:26.813Z,100849.05
2022-08-04T22:43:39.920Z,100846.82
2022-08-04T22:48:45.702Z,100846.86
2022-08-04T22:53:56.626Z,100845.25
2022-08-04T22:59:06.656Z,100843.82
2022-08-04T23:04:16.131Z,100838.58
2022-08-04T23:09:49.634Z,100831.75
2022-08-04T23:14:48.714Z,100834.15
2022-08-04T23:19:58.738Z,100829.94
2022-08-04T23:25:06.518Z,100818.84
2022-08-04T23:30:29.778Z,100812.45
2022-08-04T23:35:36.410Z,100808.94
2022-08-04T23:40:50.446Z,100805.61
2022-08-04T23:46:07.663Z,100804.52
2022-08-04T23:51:15.647Z,100803.89
2022-08-04T23:56:21.818Z,100802.06
